Time,TemperatureF,DewpointF,PressureIn,WindDirection,WindDirectionDegrees,WindSpeedMPH,WindSpeedGustMPH,Humidity,HourlyPrecipIn,Conditions,Clouds,dailyrainin,SoftwareType,DateUTC
2013-03-03 00:06:00,7.0,5.0,30.22,West,267,0.0,0.0,90,0.00,,,0.00,weatherlink.com 1.10,2013-03-03 06:06:00,
2013-03-03 00:21:00,7.1,5.0,30.22,West,267,0.0,0.0,90,0.00,,,0.00,weatherlink.com 1.10,2013-03-03 06:21:00,
2013-03-03 00:36:00,7.1,5.0,30.21,West,267,0.0,0.0,90,0.00,,,0.00,weatherlink.com 1.10,2013-03-03 06:36:00,
2013-03-03 00:51:00,6.9,5.0,30.22,West,267,0.0,0.0,90,0.00,,,0.00,weatherlink.com 1.10,2013-03-03 06:51:00,
2013-03-03 01:06:00,6.6,4.0,30.22,West,267,0.0,0.0,89,0.00,,,0.00,weatherlink.com 1.10,2013-03-03 07:06:00,
2013-03-03 01:21:00,6.8,5.0,30.22,West,267,0.0,1.0,90,0.00,,,0.00,weatherlink.com 1.10,2013-03-03 07:21:00,
2013-03-03 01:36:00,6.7,4.0,30.22,West,267,0.0,2.0,90,0.00,,,0.00,weatherlink.com 1.10,2013-03-03 07:36:00,
2013-03-03 01:51:00,6.6,4.0,30.22,West,267,0.0,1.0,89,0.00,,,0.00,weatherlink.com 1.10,2013-03-03 07:51:00,
2013-03-03 02:06:00,6.3,4.0,30.22,West,267,0.0,0.0,89,0.00,,,0.00,weatherlink.com 1.10,2013-03-03 08:06:00,
2013-03-03 02:21:00,6.0,4.0,30.21,West,267,0.0,0.0,89,0.00,,,0.00,weatherlink.com 1.10,2013-03-03 08:21:00,
2013-03-03 02:36:00,6.0,4.0,30.20,West,267,0.0,0.0,90,0.00,,,0.00,weatherlink.com 1.10,2013-03-03 08:36:00,
2013-03-03 02:51:00,5.8,4.0,30.20,West,267,0.0,0.0,90,0.00,,,0.00,weatherlink.com 1.10,2013-03-03 08:51:00,
2013-03-03 03:06:00,6.1,4.0,30.20,West,267,0.0,1.0,90,0.00,,,0.00,weatherlink.com 1.10,2013-03-03 09:06:00,
2013-03-03 03:21:00,6.0,4.0,30.19,West,267,0.0,0.0,89,0.00,,,0.00,weatherlink.com 1.10,2013-03-03 09:21:00,
2013-03-03 03:36:00,5.6,3.0,30.19,West,267,0.0,0.0,89,0.00,,,0.00,weatherlink.com 1.10,2013-03-03 09:36:00,
2013-03-03 03:51:00,5.3,3.0,30.19,West,267,0.0,0.0,89,0.00,,,0.00,weatherlink.com 1.10,2013-03-03 09:51:00,
2013-03-03 04:06:00,5.2,3.0,30.20,West,267,0.0,0.0,89,0.00,,,0.00,weatherlink.com 1.10,2013-03-03 10:06:00,
2013-03-03 04:21:00,4.9,2.0,30.19,West,267,0.0,0.0,89,0.00,,,0.00,weatherlink.com 1.10,2013-03-03 10:21:00,
2013-03-03 04:36:00,4.7,2.0,30.20,West,267,0.0,1.0,89,0.00,,,0.00,weatherlink.com 1.10,2013-03-03 10:36:00,
2013-03-03 04:51:00,4.4,2.0,30.20,West,267,0.0,0.0,88,0.00,,,0.00,weatherlink.com 1.10,2013-03-03 10:51:00,
2013-03-03 05:06:00,3.9,1.0,30.21,West,267,0.0,0.0,88,0.00,,,0.00,weatherlink.com 1.10,2013-03-03 11:06:00,
2013-03-03 05:21:00,3.6,1.0,30.21,West,267,0.0,0.0,88,0.00,,,0.00,weatherlink.com 1.10,2013-03-03 11:21:00,
2013-03-03 05:36:00,3.4,1.0,30.21,West,267,0.0,0.0,89,0.00,,,0.00,weatherlink.com 1.10,2013-03-03 11:36:00,
2013-03-03 05:51:00,3.5,1.0,30.22,West,267,0.0,0.0,89,0.00,,,0.00,weatherlink.com 1.10,2013-03-03 11:51:00,
2013-03-03 06:06:00,3.5,1.0,30.22,West,267,0.0,1.0,89,0.00,,,0.00,weatherlink.com 1.10,2013-03-03 12:06:00,
2013-03-03 06:21:00,3.3,1.0,30.22,West,267,0.0,0.0,89,0.00,,,0.00,weatherlink.com 1.10,2013-03-03 12:21:00,
2013-03-03 06:36:00,3.4,1.0,30.22,West,267,0.0,0.0,89,0.00,,,0.00,weatherlink.com 1.10,2013-03-03 12:36:00,
2013-03-03 06:51:00,3.3,1.0,30.22,West,267,0.0,0.0,89,0.00,,,0.00,weatherlink.com 1.10,2013-03-03 12:51:00,
2013-03-03 07:06:00,4.1,2.0,30.22,West,267,0.0,0.0,90,0.00,,,0.00,weatherlink.com 1.10,2013-03-03 13:06:00,
2013-03-03 07:21:00,5.7,4.0,30.22,West,267,0.0,0.0,92,0.00,,,0.00,weatherlink.com 1.10,2013-03-03 13:21:00,
2013-03-03 07:36:00,7.7,5.0,30.22,West,267,1.0,2.0,90,0.00,,,0.00,weatherlink.com 1.10,2013-03-03 13:36:00,
2013-03-03 07:51:00,9.4,7.0,30.22,West,267,0.0,2.0,90,0.00,,,0.00,weatherlink.com 1.10,2013-03-03 13:51:00,
2013-03-03 08:06:00,11.0,9.0,30.22,West,267,1.0,2.0,90,0.00,,,0.00,weatherlink.com 1.10,2013-03-03 14:06:00,
2013-03-03 08:21:00,12.6,10.0,30.22,West,267,1.0,2.0,90,0.00,,,0.00,weatherlink.com 1.10,2013-03-03 14:21:00,
2013-03-03 08:36:00,14.2,12.0,30.21,WSW,238,1.0,3.0,89,0.00,,,0.00,weatherlink.com 1.10,2013-03-03 14:36:00,
2013-03-03 08:51:00,15.8,13.0,30.21,WSW,238,2.0,2.0,87,0.00,,,0.00,weatherlink.com 1.10,2013-03-03 14:51:00,
2013-03-03 09:06:00,18.4,14.0,30.21,NW,320,2.0,3.0,83,0.00,,,0.00,weatherlink.com 1.10,2013-03-03 15:06:00,
2013-03-03 09:21:00,19.9,14.0,30.21,NNW,332,2.0,4.0,76,0.00,,,0.00,weatherlink.com 1.10,2013-03-03 15:21:00,
2013-03-03 09:36:00,20.6,13.0,30.21,NNW,337,2.0,3.0,73,0.00,,,0.00,weatherlink.com 1.10,2013-03-03 15:36:00,
2013-03-03 09:51:00,20.6,12.0,30.21,NW,323,0.0,4.0,70,0.00,,,0.00,weatherlink.com 1.10,2013-03-03 15:51:00,
2013-03-03 10:06:00,21.8,13.0,30.21,NNW,336,2.0,5.0,69,0.00,,,0.00,weatherlink.com 1.10,2013-03-03 16:06:00,
2013-03-03 10:21:00,23.3,15.0,30.21,NNW,335,2.0,4.0,71,0.00,,,0.00,weatherlink.com 1.10,2013-03-03 16:21:00,
2013-03-03 10:36:00,24.1,14.0,30.20,NNW,338,3.0,5.0,66,0.00,,,0.00,weatherlink.com 1.10,2013-03-03 16:36:00,
2013-03-03 10:52:00,25.0,14.0,30.20,NNW,333,2.0,6.0,64,0.00,,,0.00,weatherlink.com 1.10,2013-03-03 16:52:00,
2013-03-03 11:07:00,26.3,15.0,30.20,NNW,336,3.0,6.0,62,0.00,,,0.00,weatherlink.com 1.10,2013-03-03 17:07:00,
2013-03-03 11:22:00,27.0,14.0,30.20,West,263,5.0,6.0,59,0.00,,,0.00,weatherlink.com 1.10,2013-03-03 17:22:00,
2013-03-03 11:37:00,27.6,15.0,30.20,NNW,339,4.0,6.0,59,0.00,,,0.00,weatherlink.com 1.10,2013-03-03 17:37:00,
2013-03-03 11:52:00,28.4,14.0,30.19,WNW,288,1.0,5.0,55,0.00,,,0.00,weatherlink.com 1.10,2013-03-03 17:52:00,
2013-03-03 12:07:00,29.1,13.0,30.19,NNW,336,2.0,8.0,51,0.00,,,0.00,weatherlink.com 1.10,2013-03-03 18:07:00,
2013-03-03 12:22:00,30.2,13.0,30.18,NW,326,3.0,6.0,49,0.00,,,0.00,weatherlink.com 1.10,2013-03-03 18:22:00,
2013-03-03 12:37:00,31.1,13.0,30.18,WNW,288,3.0,5.0,48,0.00,,,0.00,weatherlink.com 1.10,2013-03-03 18:37:00,
2013-03-03 12:52:00,31.6,14.0,30.17,SW,230,1.0,5.0,48,0.00,,,0.00,weatherlink.com 1.10,2013-03-03 18:52:00,
2013-03-03 13:07:00,31.5,14.0,30.16,NW,310,3.0,6.0,49,0.00,,,0.00,weatherlink.com 1.10,2013-03-03 19:07:00,
2013-03-03 13:22:00,31.2,13.0,30.16,NW,319,2.0,6.0,48,0.00,,,0.00,weatherlink.com 1.10,2013-03-03 19:22:00,
2013-03-03 13:39:00,31.2,15.0,30.16,NW,319,1.0,5.0,51,0.00,,,0.00,weatherlink.com 1.10,2013-03-03 19:39:00,
2013-03-03 13:52:00,31.5,14.0,30.16,NNW,340,1.0,4.0,49,0.00,,,0.00,weatherlink.com 1.10,2013-03-03 19:52:00,
2013-03-03 14:07:00,31.4,15.0,30.15,NNW,346,2.0,7.0,50,0.00,,,0.00,weatherlink.com 1.10,2013-03-03 20:07:00,
2013-03-03 14:22:00,31.4,15.0,30.15,NNW,342,1.0,6.0,52,0.00,,,0.00,weatherlink.com 1.10,2013-03-03 20:22:00,
2013-03-03 14:37:00,30.8,14.0,30.15,West,269,2.0,5.0,51,0.00,,,0.00,weatherlink.com 1.10,2013-03-03 20:37:00,
2013-03-03 14:52:00,31.4,14.0,30.15,West,260,2.0,4.0,49,0.00,,,0.00,weatherlink.com 1.10,2013-03-03 20:52:00,
2013-03-03 15:07:00,31.2,15.0,30.15,SSW,193,2.0,6.0,52,0.00,,,0.00,weatherlink.com 1.10,2013-03-03 21:07:00,
2013-03-03 15:22:00,31.4,17.0,30.16,SSW,209,1.0,4.0,55,0.00,,,0.00,weatherlink.com 1.10,2013-03-03 21:22:00,
2013-03-03 15:37:00,30.7,16.0,30.16,WSW,238,3.0,4.0,54,0.00,,,0.00,weatherlink.com 1.10,2013-03-03 21:37:00,
2013-03-03 15:52:00,30.6,16.0,30.15,WSW,250,5.0,6.0,55,0.00,,,0.00,weatherlink.com 1.10,2013-03-03 21:52:00,
2013-03-03 16:08:00,30.6,16.0,30.15,NW,311,0.0,3.0,54,0.00,,,0.00,weatherlink.com 1.10,2013-03-03 22:08:00,
2013-03-03 16:22:00,30.3,16.0,30.15,SSW,198,3.0,5.0,55,0.00,,,0.00,weatherlink.com 1.10,2013-03-03 22:22:00,
2013-03-03 16:37:00,29.7,16.0,30.15,SSW,202,1.0,4.0,56,0.00,,,0.00,weatherlink.com 1.10,2013-03-03 22:37:00,
2013-03-03 16:53:00,30.2,16.0,30.15,SSW,211,2.0,3.0,56,0.00,,,0.00,weatherlink.com 1.10,2013-03-03 22:53:00,
2013-03-03 17:08:00,28.8,16.0,30.16,WNW,284,1.0,2.0,59,0.00,,,0.00,weatherlink.com 1.10,2013-03-03 23:08:00,
2013-03-03 17:23:00,27.9,16.0,30.16,WNW,284,0.0,2.0,62,0.00,,,0.00,weatherlink.com 1.10,2013-03-03 23:23:00,
2013-03-03 18:31:00,23.1,15.0,30.15,WNW,284,0.0,0.0,72,0.00,,,0.00,weatherlink.com 1.10,2013-03-04 00:31:00,
2013-03-03 18:42:00,22.3,16.0,30.15,WNW,284,0.0,0.0,75,0.00,,,0.00,weatherlink.com 1.10,2013-03-04 00:42:00,
2013-03-03 18:57:00,21.3,15.0,30.16,WNW,284,0.0,0.0,75,0.00,,,0.00,weatherlink.com 1.10,2013-03-04 00:57:00,
2013-03-03 19:12:00,20.7,15.0,30.16,WNW,284,0.0,1.0,77,0.00,,,0.00,weatherlink.com 1.10,2013-03-04 01:12:00,
2013-03-03 19:27:00,20.0,15.0,30.16,WNW,284,0.0,0.0,79,0.00,,,0.00,weatherlink.com 1.10,2013-03-04 01:27:00,
2013-03-03 19:42:00,19.0,14.0,30.16,WNW,284,0.0,0.0,79,0.00,,,0.00,weatherlink.com 1.10,2013-03-04 01:42:00,
2013-03-03 19:57:00,18.4,13.0,30.16,WNW,284,0.0,0.0,79,0.00,,,0.00,weatherlink.com 1.10,2013-03-04 01:57:00,
2013-03-03 20:12:00,17.7,13.0,30.16,WNW,284,0.0,0.0,82,0.00,,,0.00,weatherlink.com 1.10,2013-03-04 02:12:00,
2013-03-03 20:27:00,17.0,12.0,30.16,WNW,284,0.0,0.0,82,0.00,,,0.00,weatherlink.com 1.10,2013-03-04 02:27:00,
2013-03-03 20:42:00,16.6,13.0,30.17,WNW,284,0.0,0.0,84,0.00,,,0.00,weatherlink.com 1.10,2013-03-04 02:42:00,
2013-03-03 20:57:00,16.0,12.0,30.17,WNW,284,0.0,0.0,85,0.00,,,0.00,weatherlink.com 1.10,2013-03-04 02:57:00,
2013-03-03 21:12:00,15.3,12.0,30.17,WNW,284,0.0,0.0,86,0.00,,,0.00,weatherlink.com 1.10,2013-03-04 03:12:00,
2013-03-03 21:27:00,14.6,11.0,30.17,WNW,284,0.0,0.0,86,0.00,,,0.00,weatherlink.com 1.10,2013-03-04 03:27:00,
2013-03-03 21:42:00,14.1,11.0,30.16,WNW,284,0.0,0.0,87,0.00,,,0.00,weatherlink.com 1.10,2013-03-04 03:42:00,
2013-03-03 21:57:00,13.4,11.0,30.17,WNW,284,0.0,0.0,88,0.00,,,0.00,weatherlink.com 1.10,2013-03-04 03:57:00,
2013-03-03 22:13:00,13.0,10.0,30.17,WNW,284,1.0,1.0,88,0.00,,,0.00,weatherlink.com 1.10,2013-03-04 04:13:00,
2013-03-03 22:28:00,12.7,10.0,30.17,WNW,284,0.0,1.0,88,0.00,,,0.00,weatherlink.com 1.10,2013-03-04 04:28:00,
2013-03-03 22:43:00,12.4,10.0,30.16,WNW,284,1.0,2.0,88,0.00,,,0.00,weatherlink.com 1.10,2013-03-04 04:43:00,
2013-03-03 22:58:00,12.6,10.0,30.16,WNW,284,2.0,2.0,89,0.00,,,0.00,weatherlink.com 1.10,2013-03-04 04:58:00,
2013-03-03 23:13:00,13.0,10.0,30.16,WNW,284,0.0,2.0,89,0.00,,,0.00,weatherlink.com 1.10,2013-03-04 05:13:00,
2013-03-03 23:28:00,12.6,10.0,30.16,WNW,284,1.0,2.0,87,0.00,,,0.00,weatherlink.com 1.10,2013-03-04 05:28:00,
2013-03-03 23:43:00,12.2,9.0,30.16,WNW,284,2.0,2.0,88,0.00,,,0.00,weatherlink.com 1.10,2013-03-04 05:43:00,
2013-03-03 23:58:00,12.7,10.0,30.16,WNW,284,1.0,2.0,88,0.00,,,0.00,weatherlink.com 1.10,2013-03-04 05:58:00,